sensor_id;sensor_type;location;lat;lon;timestamp;P1;durP1;ratioP1;P2;durP2;ratioP2
51560;SDS011;37654;51.262;17.058;2023-04-04T00:02:21;17.38;;;6.72;;
51560;SDS011;37654;51.262;17.058;2023-04-04T00:04:46;18.55;;;7.55;;
51560;SDS011;37654;51.262;17.058;2023-04-04T00:07:11;21.63;;;9.00;;
51560;SDS011;37654;51.262;17.058;2023-04-04T00:09:37;24.48;;;8.77;;
51560;SDS011;37654;51.262;17.058;2023-04-04T00:12:02;20.80;;;7.97;;
51560;SDS011;37654;51.262;17.058;2023-04-04T00:14:28;18.92;;;8.15;;
51560;SDS011;37654;51.262;17.058;2023-04-04T00:16:54;17.83;;;7.20;;
51560;SDS011;37654;51.262;17.058;2023-04-04T00:19:19;17.95;;;8.15;;
51560;SDS011;37654;51.262;17.058;2023-04-04T00:21:45;15.75;;;6.20;;
51560;SDS011;37654;51.262;17.058;2023-04-04T00:24:10;17.02;;;6.97;;
51560;SDS011;37654;51.262;17.058;2023-04-04T00:26:36;21.40;;;6.88;;
51560;SDS011;37654;51.262;17.058;2023-04-04T00:29:02;16.65;;;7.22;;
51560;SDS011;37654;51.262;17.058;2023-04-04T00:31:27;16.38;;;7.07;;
51560;SDS011;37654;51.262;17.058;2023-04-04T00:33:53;14.93;;;6.90;;
51560;SDS011;37654;51.262;17.058;2023-04-04T00:36:18;16.15;;;6.35;;
51560;SDS011;37654;51.262;17.058;2023-04-04T00:38:44;14.32;;;6.45;;
51560;SDS011;37654;51.262;17.058;2023-04-04T00:41:09;16.13;;;6.57;;
51560;SDS011;37654;51.262;17.058;2023-04-04T00:43:36;17.13;;;6.60;;
51560;SDS011;37654;51.262;17.058;2023-04-04T00:46:02;13.60;;;5.63;;
51560;SDS011;37654;51.262;17.058;2023-04-04T00:48:28;18.15;;;6.93;;
51560;SDS011;37654;51.262;17.058;2023-04-04T00:50:53;17.08;;;7.05;;
51560;SDS011;37654;51.262;17.058;2023-04-04T00:53:19;13.77;;;5.75;;
51560;SDS011;37654;51.262;17.058;2023-04-04T00:55:45;20.85;;;7.53;;
51560;SDS011;37654;51.262;17.058;2023-04-04T00:58:10;21.98;;;7.40;;
51560;SDS011;37654;51.262;17.058;2023-04-04T01:00:36;16.50;;;7.47;;
51560;SDS011;37654;51.262;17.058;2023-04-04T01:03:02;17.27;;;6.80;;
51560;SDS011;37654;51.262;17.058;2023-04-04T01:05:30;14.82;;;7.18;;
51560;SDS011;37654;51.262;17.058;2023-04-04T01:07:56;17.20;;;7.18;;
51560;SDS011;37654;51.262;17.058;2023-04-04T01:10:21;21.98;;;7.15;;
51560;SDS011;37654;51.262;17.058;2023-04-04T01:12:47;17.63;;;7.32;;
51560;SDS011;37654;51.262;17.058;2023-04-04T01:15:12;16.55;;;7.20;;
51560;SDS011;37654;51.262;17.058;2023-04-04T01:17:38;13.27;;;5.88;;
51560;SDS011;37654;51.262;17.058;2023-04-04T01:22:33;13.32;;;5.95;;
51560;SDS011;37654;51.262;17.058;2023-04-04T01:24:59;14.45;;;6.90;;
51560;SDS011;37654;51.262;17.058;2023-04-04T01:27:26;13.02;;;4.75;;
51560;SDS011;37654;51.262;17.058;2023-04-04T01:29:51;14.15;;;4.95;;
51560;SDS011;37654;51.262;17.058;2023-04-04T01:32:28;9.18;;;4.07;;
51560;SDS011;37654;51.262;17.058;2023-04-04T01:37:52;15.40;;;6.20;;
51560;SDS011;37654;51.262;17.058;2023-04-04T01:40:30;17.25;;;6.07;;
51560;SDS011;37654;51.262;17.058;2023-04-04T01:43:01;14.07;;;6.90;;
51560;SDS011;37654;51.262;17.058;2023-04-04T01:45:27;14.55;;;5.80;;
51560;SDS011;37654;51.262;17.058;2023-04-04T01:47:53;14.20;;;5.53;;
51560;SDS011;37654;51.262;17.058;2023-04-04T01:50:20;14.25;;;5.55;;
51560;SDS011;37654;51.262;17.058;2023-04-04T01:52:46;15.80;;;6.65;;
51560;SDS011;37654;51.262;17.058;2023-04-04T01:55:12;14.32;;;5.60;;
51560;SDS011;37654;51.262;17.058;2023-04-04T01:57:37;16.35;;;6.00;;
51560;SDS011;37654;51.262;17.058;2023-04-04T02:00:03;14.32;;;5.75;;
51560;SDS011;37654;51.262;17.058;2023-04-04T02:02:29;12.43;;;5.38;;
51560;SDS011;37654;51.262;17.058;2023-04-04T02:04:55;16.92;;;6.70;;
51560;SDS011;37654;51.262;17.058;2023-04-04T02:07:20;12.18;;;5.85;;
51560;SDS011;37654;51.262;17.058;2023-04-04T02:09:46;14.82;;;6.88;;
51560;SDS011;37654;51.262;17.058;2023-04-04T02:12:11;14.88;;;6.13;;
51560;SDS011;37654;51.262;17.058;2023-04-04T02:14:37;16.88;;;6.68;;
51560;SDS011;37654;51.262;17.058;2023-04-04T02:17:02;18.55;;;7.38;;
51560;SDS011;37654;51.262;17.058;2023-04-04T02:19:28;14.57;;;6.03;;
51560;SDS011;37654;51.262;17.058;2023-04-04T02:21:53;15.50;;;6.20;;
51560;SDS011;37654;51.262;17.058;2023-04-04T02:24:20;18.05;;;7.63;;
51560;SDS011;37654;51.262;17.058;2023-04-04T02:26:46;18.42;;;8.05;;
51560;SDS011;37654;51.262;17.058;2023-04-04T02:29:12;16.52;;;7.32;;
51560;SDS011;37654;51.262;17.058;2023-04-04T02:31:37;17.08;;;8.15;;
51560;SDS011;37654;51.262;17.058;2023-04-04T02:34:03;18.98;;;7.28;;
51560;SDS011;37654;51.262;17.058;2023-04-04T02:36:28;19.08;;;7.38;;
51560;SDS011;37654;51.262;17.058;2023-04-04T02:38:54;15.52;;;7.15;;
51560;SDS011;37654;51.262;17.058;2023-04-04T02:41:19;17.08;;;6.88;;
51560;SDS011;37654;51.262;17.058;2023-04-04T02:43:45;25.77;;;7.63;;
51560;SDS011;37654;51.262;17.058;2023-04-04T02:46:10;17.67;;;7.65;;
51560;SDS011;37654;51.262;17.058;2023-04-04T02:48:35;18.10;;;8.38;;
51560;SDS011;37654;51.262;17.058;2023-04-04T02:51:01;19.27;;;7.40;;
51560;SDS011;37654;51.262;17.058;2023-04-04T02:53:26;18.65;;;8.02;;
51560;SDS011;37654;51.262;17.058;2023-04-04T02:55:52;15.50;;;6.40;;
51560;SDS011;37654;51.262;17.058;2023-04-04T02:58:17;17.08;;;7.63;;
51560;SDS011;37654;51.262;17.058;2023-04-04T03:00:43;19.35;;;7.50;;
51560;SDS011;37654;51.262;17.058;2023-04-04T03:03:11;15.18;;;8.02;;
51560;SDS011;37654;51.262;17.058;2023-04-04T03:05:36;15.48;;;7.90;;
51560;SDS011;37654;51.262;17.058;2023-04-04T03:08:02;20.98;;;8.23;;
51560;SDS011;37654;51.262;17.058;2023-04-04T03:10:28;22.58;;;7.15;;
51560;SDS011;37654;51.262;17.058;2023-04-04T03:12:54;22.25;;;8.48;;
51560;SDS011;37654;51.262;17.058;2023-04-04T03:15:20;17.63;;;7.85;;
51560;SDS011;37654;51.262;17.058;2023-04-04T03:17:46;24.67;;;8.02;;
51560;SDS011;37654;51.262;17.058;2023-04-04T03:20:12;21.77;;;9.82;;
51560;SDS011;37654;51.262;17.058;2023-04-04T03:22:39;17.85;;;8.77;;
51560;SDS011;37654;51.262;17.058;2023-04-04T03:25:06;18.40;;;8.52;;
51560;SDS011;37654;51.262;17.058;2023-04-04T03:27:32;20.48;;;8.40;;
51560;SDS011;37654;51.262;17.058;2023-04-04T03:29:57;14.52;;;7.60;;
51560;SDS011;37654;51.262;17.058;2023-04-04T03:32:23;17.20;;;8.13;;
51560;SDS011;37654;51.262;17.058;2023-04-04T03:34:49;17.92;;;8.05;;
51560;SDS011;37654;51.262;17.058;2023-04-04T03:37:16;19.17;;;9.05;;
51560;SDS011;37654;51.262;17.058;2023-04-04T03:39:41;18.23;;;7.75;;
51560;SDS011;37654;51.262;17.058;2023-04-04T03:42:07;16.27;;;7.63;;
51560;SDS011;37654;51.262;17.058;2023-04-04T03:44:32;29.85;;;9.32;;
51560;SDS011;37654;51.262;17.058;2023-04-04T03:46:58;21.05;;;8.68;;
51560;SDS011;37654;51.262;17.058;2023-04-04T03:49:23;16.67;;;8.75;;
51560;SDS011;37654;51.262;17.058;2023-04-04T03:51:49;20.63;;;8.25;;
51560;SDS011;37654;51.262;17.058;2023-04-04T03:54:14;19.52;;;8.80;;
51560;SDS011;37654;51.262;17.058;2023-04-04T03:56:39;17.73;;;8.65;;
51560;SDS011;37654;51.262;17.058;2023-04-04T03:59:05;17.95;;;8.82;;
51560;SDS011;37654;51.262;17.058;2023-04-04T04:01:31;18.92;;;7.88;;
51560;SDS011;37654;51.262;17.058;2023-04-04T04:03:56;18.45;;;7.97;;
51560;SDS011;37654;51.262;17.058;2023-04-04T04:06:22;20.00;;;8.68;;
51560;SDS011;37654;51.262;17.058;2023-04-04T04:08:47;19.65;;;11.65;;
51560;SDS011;37654;51.262;17.058;2023-04-04T04:11:12;19.13;;;7.80;;
51560;SDS011;37654;51.262;17.058;2023-04-04T04:13:38;21.17;;;8.30;;
51560;SDS011;37654;51.262;17.058;2023-04-04T04:16:04;18.08;;;7.60;;
51560;SDS011;37654;51.262;17.058;2023-04-04T04:18:30;18.70;;;8.65;;
51560;SDS011;37654;51.262;17.058;2023-04-04T04:20:57;17.92;;;7.97;;
51560;SDS011;37654;51.262;17.058;2023-04-04T04:23:28;19.80;;;8.02;;
51560;SDS011;37654;51.262;17.058;2023-04-04T04:25:53;17.85;;;8.52;;
51560;SDS011;37654;51.262;17.058;2023-04-04T04:28:19;18.42;;;8.00;;
51560;SDS011;37654;51.262;17.058;2023-04-04T04:30:44;18.55;;;9.00;;
51560;SDS011;37654;51.262;17.058;2023-04-04T04:33:10;18.55;;;7.57;;
51560;SDS011;37654;51.262;17.058;2023-04-04T04:35:36;17.90;;;8.00;;
51560;SDS011;37654;51.262;17.058;2023-04-04T04:38:03;15.10;;;7.45;;
51560;SDS011;37654;51.262;17.058;2023-04-04T04:40:30;19.08;;;7.78;;
51560;SDS011;37654;51.262;17.058;2023-04-04T04:42:55;32.45;;;10.07;;
51560;SDS011;37654;51.262;17.058;2023-04-04T04:45:20;17.08;;;8.43;;
51560;SDS011;37654;51.262;17.058;2023-04-04T04:47:46;15.32;;;7.00;;
51560;SDS011;37654;51.262;17.058;2023-04-04T04:50:11;19.38;;;8.52;;
51560;SDS011;37654;51.262;17.058;2023-04-04T04:52:37;22.23;;;9.27;;
51560;SDS011;37654;51.262;17.058;2023-04-04T04:55:03;21.25;;;7.88;;
51560;SDS011;37654;51.262;17.058;2023-04-04T04:57:29;25.92;;;8.75;;
51560;SDS011;37654;51.262;17.058;2023-04-04T04:59:54;23.23;;;7.95;;
51560;SDS011;37654;51.262;17.058;2023-04-04T05:02:20;19.75;;;8.70;;
51560;SDS011;37654;51.262;17.058;2023-04-04T05:04:45;16.30;;;7.82;;
51560;SDS011;37654;51.262;17.058;2023-04-04T05:07:10;16.55;;;7.13;;
51560;SDS011;37654;51.262;17.058;2023-04-04T05:09:36;18.80;;;7.82;;
51560;SDS011;37654;51.262;17.058;2023-04-04T05:12:02;14.90;;;7.15;;
51560;SDS011;37654;51.262;17.058;2023-04-04T05:14:28;21.38;;;8.68;;
51560;SDS011;37654;51.262;17.058;2023-04-04T05:16:53;14.93;;;7.70;;
51560;SDS011;37654;51.262;17.058;2023-04-04T05:19:19;18.63;;;7.55;;
51560;SDS011;37654;51.262;17.058;2023-04-04T05:21:44;18.42;;;8.00;;
51560;SDS011;37654;51.262;17.058;2023-04-04T05:24:10;17.20;;;6.97;;
51560;SDS011;37654;51.262;17.058;2023-04-04T05:26:35;20.65;;;8.45;;
51560;SDS011;37654;51.262;17.058;2023-04-04T05:29:01;22.42;;;6.80;;
51560;SDS011;37654;51.262;17.058;2023-04-04T05:31:26;19.85;;;7.60;;
51560;SDS011;37654;51.262;17.058;2023-04-04T05:33:52;15.10;;;6.10;;
51560;SDS011;37654;51.262;17.058;2023-04-04T05:36:17;16.30;;;5.18;;
51560;SDS011;37654;51.262;17.058;2023-04-04T05:38:43;20.90;;;5.82;;
51560;SDS011;37654;51.262;17.058;2023-04-04T05:41:08;17.00;;;6.88;;
51560;SDS011;37654;51.262;17.058;2023-04-04T05:43:34;17.98;;;5.93;;
51560;SDS011;37654;51.262;17.058;2023-04-04T05:46:00;15.23;;;4.65;;
51560;SDS011;37654;51.262;17.058;2023-04-04T05:48:25;19.00;;;6.53;;
51560;SDS011;37654;51.262;17.058;2023-04-04T05:50:51;12.30;;;4.45;;
51560;SDS011;37654;51.262;17.058;2023-04-04T05:53:16;17.88;;;6.15;;
51560;SDS011;37654;51.262;17.058;2023-04-04T05:55:42;16.67;;;5.45;;
51560;SDS011;37654;51.262;17.058;2023-04-04T05:58:07;10.60;;;4.30;;
51560;SDS011;37654;51.262;17.058;2023-04-04T06:00:33;10.80;;;4.55;;
51560;SDS011;37654;51.262;17.058;2023-04-04T06:02:58;19.27;;;5.05;;
51560;SDS011;37654;51.262;17.058;2023-04-04T06:05:24;14.07;;;5.20;;
51560;SDS011;37654;51.262;17.058;2023-04-04T06:07:49;11.75;;;4.35;;
51560;SDS011;37654;51.262;17.058;2023-04-04T06:10:15;15.77;;;5.55;;
51560;SDS011;37654;51.262;17.058;2023-04-04T06:12:40;16.80;;;6.10;;
51560;SDS011;37654;51.262;17.058;2023-04-04T06:15:06;15.25;;;4.97;;
51560;SDS011;37654;51.262;17.058;2023-04-04T06:17:33;23.42;;;5.38;;
51560;SDS011;37654;51.262;17.058;2023-04-04T06:19:58;12.30;;;4.53;;
51560;SDS011;37654;51.262;17.058;2023-04-04T06:22:24;17.38;;;6.45;;
51560;SDS011;37654;51.262;17.058;2023-04-04T06:24:49;12.90;;;4.07;;
51560;SDS011;37654;51.262;17.058;2023-04-04T06:27:15;11.93;;;4.25;;
51560;SDS011;37654;51.262;17.058;2023-04-04T06:29:41;13.82;;;4.43;;
51560;SDS011;37654;51.262;17.058;2023-04-04T06:32:06;9.57;;;4.63;;
51560;SDS011;37654;51.262;17.058;2023-04-04T06:34:32;9.52;;;3.33;;
51560;SDS011;37654;51.262;17.058;2023-04-04T06:36:57;9.70;;;4.20;;
51560;SDS011;37654;51.262;17.058;2023-04-04T06:39:23;12.10;;;4.10;;
51560;SDS011;37654;51.262;17.058;2023-04-04T06:41:48;15.50;;;4.78;;
51560;SDS011;37654;51.262;17.058;2023-04-04T06:44:13;16.58;;;5.32;;
51560;SDS011;37654;51.262;17.058;2023-04-04T06:46:39;14.40;;;4.85;;
51560;SDS011;37654;51.262;17.058;2023-04-04T06:49:05;18.35;;;4.30;;
51560;SDS011;37654;51.262;17.058;2023-04-04T06:51:33;13.95;;;3.63;;
51560;SDS011;37654;51.262;17.058;2023-04-04T06:53:59;12.38;;;4.63;;
51560;SDS011;37654;51.262;17.058;2023-04-04T06:56:25;12.77;;;5.47;;
51560;SDS011;37654;51.262;17.058;2023-04-04T06:58:51;9.57;;;4.13;;
51560;SDS011;37654;51.262;17.058;2023-04-04T07:01:17;10.27;;;4.00;;
51560;SDS011;37654;51.262;17.058;2023-04-04T07:03:42;8.02;;;3.80;;
51560;SDS011;37654;51.262;17.058;2023-04-04T07:06:08;10.20;;;3.40;;
51560;SDS011;37654;51.262;17.058;2023-04-04T07:08:34;9.02;;;3.72;;
51560;SDS011;37654;51.262;17.058;2023-04-04T07:11:00;9.82;;;3.78;;
51560;SDS011;37654;51.262;17.058;2023-04-04T07:13:25;6.03;;;2.80;;
51560;SDS011;37654;51.262;17.058;2023-04-04T07:15:51;7.93;;;3.83;;
51560;SDS011;37654;51.262;17.058;2023-04-04T07:18:16;11.38;;;3.30;;
51560;SDS011;37654;51.262;17.058;2023-04-04T07:20:42;11.40;;;3.75;;
51560;SDS011;37654;51.262;17.058;2023-04-04T07:23:08;9.45;;;4.32;;
51560;SDS011;37654;51.262;17.058;2023-04-04T07:25:36;10.50;;;3.42;;
51560;SDS011;37654;51.262;17.058;2023-04-04T07:28:02;7.47;;;3.25;;
51560;SDS011;37654;51.262;17.058;2023-04-04T07:30:27;11.40;;;4.03;;
51560;SDS011;37654;51.262;17.058;2023-04-04T07:32:57;15.95;;;3.63;;
51560;SDS011;37654;51.262;17.058;2023-04-04T07:35:23;6.18;;;2.60;;
51560;SDS011;37654;51.262;17.058;2023-04-04T07:37:49;10.88;;;3.83;;
51560;SDS011;37654;51.262;17.058;2023-04-04T07:40:14;9.48;;;3.05;;
51560;SDS011;37654;51.262;17.058;2023-04-04T07:42:43;7.82;;;3.38;;
51560;SDS011;37654;51.262;17.058;2023-04-04T07:45:10;5.90;;;2.70;;
51560;SDS011;37654;51.262;17.058;2023-04-04T07:47:36;6.47;;;2.15;;
51560;SDS011;37654;51.262;17.058;2023-04-04T07:50:02;6.75;;;3.40;;
51560;SDS011;37654;51.262;17.058;2023-04-04T07:52:28;6.13;;;2.20;;
51560;SDS011;37654;51.262;17.058;2023-04-04T07:54:54;6.18;;;2.20;;
51560;SDS011;37654;51.262;17.058;2023-04-04T07:57:19;6.40;;;2.67;;
51560;SDS011;37654;51.262;17.058;2023-04-04T07:59:45;7.68;;;2.97;;
51560;SDS011;37654;51.262;17.058;2023-04-04T08:02:11;8.07;;;2.72;;
51560;SDS011;37654;51.262;17.058;2023-04-04T08:04:37;10.52;;;3.42;;
51560;SDS011;37654;51.262;17.058;2023-04-04T08:07:02;6.03;;;2.55;;
51560;SDS011;37654;51.262;17.058;2023-04-04T08:09:27;8.32;;;3.50;;
51560;SDS011;37654;51.262;17.058;2023-04-04T08:11:58;5.78;;;2.78;;
51560;SDS011;37654;51.262;17.058;2023-04-04T08:14:25;5.00;;;2.22;;
51560;SDS011;37654;51.262;17.058;2023-04-04T08:16:51;9.23;;;2.08;;
51560;SDS011;37654;51.262;17.058;2023-04-04T08:19:17;6.03;;;2.45;;
51560;SDS011;37654;51.262;17.058;2023-04-04T08:21:43;7.07;;;2.47;;
51560;SDS011;37654;51.262;17.058;2023-04-04T08:24:09;4.75;;;2.00;;
51560;SDS011;37654;51.262;17.058;2023-04-04T08:26:36;7.85;;;2.60;;
51560;SDS011;37654;51.262;17.058;2023-04-04T08:29:01;8.43;;;2.47;;
51560;SDS011;37654;51.262;17.058;2023-04-04T08:31:27;5.90;;;2.10;;
51560;SDS011;37654;51.262;17.058;2023-04-04T08:33:53;3.92;;;2.00;;
51560;SDS011;37654;51.262;17.058;2023-04-04T08:36:19;5.97;;;1.50;;
51560;SDS011;37654;51.262;17.058;2023-04-04T08:38:45;6.18;;;2.10;;
51560;SDS011;37654;51.262;17.058;2023-04-04T08:41:11;7.03;;;2.10;;
51560;SDS011;37654;51.262;17.058;2023-04-04T08:43:37;5.65;;;2.15;;
51560;SDS011;37654;51.262;17.058;2023-04-04T08:46:06;5.00;;;1.73;;
51560;SDS011;37654;51.262;17.058;2023-04-04T08:48:34;7.63;;;2.65;;
51560;SDS011;37654;51.262;17.058;2023-04-04T08:51:02;5.47;;;2.40;;
51560;SDS011;37654;51.262;17.058;2023-04-04T08:53:28;4.30;;;1.75;;
51560;SDS011;37654;51.262;17.058;2023-04-04T08:55:54;7.32;;;2.67;;
51560;SDS011;37654;51.262;17.058;2023-04-04T08:58:23;5.75;;;2.05;;
51560;SDS011;37654;51.262;17.058;2023-04-04T09:00:51;5.45;;;2.08;;
51560;SDS011;37654;51.262;17.058;2023-04-04T09:03:24;6.20;;;2.13;;
51560;SDS011;37654;51.262;17.058;2023-04-04T09:05:54;6.00;;;2.03;;
51560;SDS011;37654;51.262;17.058;2023-04-04T09:08:21;7.13;;;2.53;;
51560;SDS011;37654;51.262;17.058;2023-04-04T09:10:49;5.45;;;2.33;;
51560;SDS011;37654;51.262;17.058;2023-04-04T09:13:15;6.32;;;2.72;;
51560;SDS011;37654;51.262;17.058;2023-04-04T09:15:42;6.95;;;1.98;;
51560;SDS011;37654;51.262;17.058;2023-04-04T09:18:11;7.10;;;2.40;;
51560;SDS011;37654;51.262;17.058;2023-04-04T09:23:10;8.98;;;2.03;;
51560;SDS011;37654;51.262;17.058;2023-04-04T09:25:37;12.45;;;2.75;;
51560;SDS011;37654;51.262;17.058;2023-04-04T09:28:08;4.28;;;2.35;;
51560;SDS011;37654;51.262;17.058;2023-04-04T09:30:33;4.03;;;2.08;;
51560;SDS011;37654;51.262;17.058;2023-04-04T09:33:05;10.68;;;3.55;;
51560;SDS011;37654;51.262;17.058;2023-04-04T09:35:33;5.28;;;2.28;;
51560;SDS011;37654;51.262;17.058;2023-04-04T09:38:01;5.68;;;2.50;;
51560;SDS011;37654;51.262;17.058;2023-04-04T09:40:28;11.73;;;2.63;;
51560;SDS011;37654;51.262;17.058;2023-04-04T09:42:54;6.82;;;2.13;;
51560;SDS011;37654;51.262;17.058;2023-04-04T09:45:23;9.35;;;2.55;;
51560;SDS011;37654;51.262;17.058;2023-04-04T09:47:50;9.10;;;2.38;;
51560;SDS011;37654;51.262;17.058;2023-04-04T09:50:22;6.47;;;2.58;;
51560;SDS011;37654;51.262;17.058;2023-04-04T09:52:49;10.55;;;2.72;;
51560;SDS011;37654;51.262;17.058;2023-04-04T09:55:15;7.60;;;2.65;;
51560;SDS011;37654;51.262;17.058;2023-04-04T09:57:41;5.22;;;2.20;;
51560;SDS011;37654;51.262;17.058;2023-04-04T10:00:07;9.07;;;3.38;;
51560;SDS011;37654;51.262;17.058;2023-04-04T10:02:33;11.52;;;2.20;;
51560;SDS011;37654;51.262;17.058;2023-04-04T10:05:04;7.32;;;2.25;;
51560;SDS011;37654;51.262;17.058;2023-04-04T10:07:35;9.07;;;2.35;;
51560;SDS011;37654;51.262;17.058;2023-04-04T10:10:04;3.67;;;1.50;;
51560;SDS011;37654;51.262;17.058;2023-04-04T10:12:30;5.47;;;1.88;;
51560;SDS011;37654;51.262;17.058;2023-04-04T10:15:00;7.65;;;2.17;;
51560;SDS011;37654;51.262;17.058;2023-04-04T10:17:29;8.73;;;2.40;;
51560;SDS011;37654;51.262;17.058;2023-04-04T10:20:00;3.78;;;1.60;;
51560;SDS011;37654;51.262;17.058;2023-04-04T10:22:31;6.88;;;1.42;;
51560;SDS011;37654;51.262;17.058;2023-04-04T10:24:57;3.75;;;1.77;;
51560;SDS011;37654;51.262;17.058;2023-04-04T10:27:23;5.53;;;2.35;;
51560;SDS011;37654;51.262;17.058;2023-04-04T10:29:49;5.22;;;1.67;;
51560;SDS011;37654;51.262;17.058;2023-04-04T10:32:17;6.53;;;1.63;;
51560;SDS011;37654;51.262;17.058;2023-04-04T10:34:56;5.63;;;1.73;;
51560;SDS011;37654;51.262;17.058;2023-04-04T10:37:36;6.85;;;2.42;;
51560;SDS011;37654;51.262;17.058;2023-04-04T10:40:08;6.97;;;2.10;;
51560;SDS011;37654;51.262;17.058;2023-04-04T10:42:44;6.10;;;2.30;;
51560;SDS011;37654;51.262;17.058;2023-04-04T10:45:12;8.65;;;2.22;;
51560;SDS011;37654;51.262;17.058;2023-04-04T10:47:39;4.70;;;2.25;;
51560;SDS011;37654;51.262;17.058;2023-04-04T10:50:05;4.40;;;2.25;;
51560;SDS011;37654;51.262;17.058;2023-04-04T10:52:34;6.35;;;2.58;;
51560;SDS011;37654;51.262;17.058;2023-04-04T10:55:01;7.40;;;2.45;;
51560;SDS011;37654;51.262;17.058;2023-04-04T10:57:30;7.55;;;2.38;;
51560;SDS011;37654;51.262;17.058;2023-04-04T10:59:59;7.22;;;2.20;;
51560;SDS011;37654;51.262;17.058;2023-04-04T11:05:33;6.63;;;1.92;;
51560;SDS011;37654;51.262;17.058;2023-04-04T11:08:25;4.22;;;1.63;;
51560;SDS011;37654;51.262;17.058;2023-04-04T11:10:52;6.80;;;1.70;;
51560;SDS011;37654;51.262;17.058;2023-04-04T11:13:25;4.68;;;1.85;;
51560;SDS011;37654;51.262;17.058;2023-04-04T11:21:06;4.30;;;1.80;;
51560;SDS011;37654;51.262;17.058;2023-04-04T11:26:11;9.55;;;2.63;;
51560;SDS011;37654;51.262;17.058;2023-04-04T11:33:55;8.25;;;1.85;;
51560;SDS011;37654;51.262;17.058;2023-04-04T11:41:47;7.10;;;2.30;;
51560;SDS011;37654;51.262;17.058;2023-04-04T11:44:16;11.38;;;2.55;;
51560;SDS011;37654;51.262;17.058;2023-04-04T11:46:42;7.90;;;2.20;;
51560;SDS011;37654;51.262;17.058;2023-04-04T11:49:08;7.78;;;2.25;;
51560;SDS011;37654;51.262;17.058;2023-04-04T11:51:34;7.22;;;2.17;;
51560;SDS011;37654;51.262;17.058;2023-04-04T11:54:01;5.90;;;2.42;;
51560;SDS011;37654;51.262;17.058;2023-04-04T11:56:27;8.18;;;2.05;;
51560;SDS011;37654;51.262;17.058;2023-04-04T11:58:52;3.58;;;1.48;;
51560;SDS011;37654;51.262;17.058;2023-04-04T12:01:18;4.72;;;2.15;;
51560;SDS011;37654;51.262;17.058;2023-04-04T12:03:44;8.75;;;2.70;;
51560;SDS011;37654;51.262;17.058;2023-04-04T12:06:10;5.80;;;2.47;;
51560;SDS011;37654;51.262;17.058;2023-04-04T12:08:36;14.55;;;3.70;;
51560;SDS011;37654;51.262;17.058;2023-04-04T12:11:05;7.10;;;3.05;;
51560;SDS011;37654;51.262;17.058;2023-04-04T12:13:33;5.50;;;2.60;;
51560;SDS011;37654;51.262;17.058;2023-04-04T12:15:58;6.95;;;2.13;;
51560;SDS011;37654;51.262;17.058;2023-04-04T12:18:24;7.28;;;2.22;;
51560;SDS011;37654;51.262;17.058;2023-04-04T12:20:50;4.88;;;2.03;;
51560;SDS011;37654;51.262;17.058;2023-04-04T12:23:16;8.48;;;2.28;;
51560;SDS011;37654;51.262;17.058;2023-04-04T12:25:41;6.07;;;2.00;;
51560;SDS011;37654;51.262;17.058;2023-04-04T12:28:09;5.82;;;2.05;;
51560;SDS011;37654;51.262;17.058;2023-04-04T12:30:36;4.90;;;1.80;;
51560;SDS011;37654;51.262;17.058;2023-04-04T12:33:02;5.50;;;2.63;;
51560;SDS011;37654;51.262;17.058;2023-04-04T12:35:28;7.95;;;2.58;;
51560;SDS011;37654;51.262;17.058;2023-04-04T12:37:56;6.88;;;2.00;;
51560;SDS011;37654;51.262;17.058;2023-04-04T12:40:22;10.07;;;2.42;;
51560;SDS011;37654;51.262;17.058;2023-04-04T12:42:47;8.40;;;2.72;;
51560;SDS011;37654;51.262;17.058;2023-04-04T12:45:13;6.95;;;1.98;;
51560;SDS011;37654;51.262;17.058;2023-04-04T12:47:50;5.78;;;1.73;;
51560;SDS011;37654;51.262;17.058;2023-04-04T12:50:27;7.88;;;2.15;;
51560;SDS011;37654;51.262;17.058;2023-04-04T12:52:53;8.85;;;2.42;;
51560;SDS011;37654;51.262;17.058;2023-04-04T12:55:19;8.82;;;2.00;;
51560;SDS011;37654;51.262;17.058;2023-04-04T12:57:46;7.47;;;2.55;;
51560;SDS011;37654;51.262;17.058;2023-04-04T13:00:12;4.95;;;2.20;;
51560;SDS011;37654;51.262;17.058;2023-04-04T13:02:39;6.43;;;2.35;;
51560;SDS011;37654;51.262;17.058;2023-04-04T13:05:09;3.53;;;1.88;;
51560;SDS011;37654;51.262;17.058;2023-04-04T13:07:37;7.90;;;2.45;;
51560;SDS011;37654;51.262;17.058;2023-04-04T13:10:07;7.95;;;2.30;;
51560;SDS011;37654;51.262;17.058;2023-04-04T13:15:17;7.45;;;2.25;;
51560;SDS011;37654;51.262;17.058;2023-04-04T13:20:09;5.55;;;2.00;;
51560;SDS011;37654;51.262;17.058;2023-04-04T13:22:39;7.00;;;1.83;;
51560;SDS011;37654;51.262;17.058;2023-04-04T13:25:06;5.50;;;2.15;;
51560;SDS011;37654;51.262;17.058;2023-04-04T13:27:33;4.97;;;2.08;;
51560;SDS011;37654;51.262;17.058;2023-04-04T13:29:59;9.93;;;2.50;;
51560;SDS011;37654;51.262;17.058;2023-04-04T13:32:24;7.78;;;2.55;;
51560;SDS011;37654;51.262;17.058;2023-04-04T13:34:50;8.68;;;2.22;;
51560;SDS011;37654;51.262;17.058;2023-04-04T13:37:15;7.55;;;1.90;;
51560;SDS011;37654;51.262;17.058;2023-04-04T13:39:41;5.38;;;1.98;;
51560;SDS011;37654;51.262;17.058;2023-04-04T13:42:06;12.65;;;2.58;;
51560;SDS011;37654;51.262;17.058;2023-04-04T13:44:32;7.32;;;2.58;;
51560;SDS011;37654;51.262;17.058;2023-04-04T13:46:58;8.10;;;2.22;;
51560;SDS011;37654;51.262;17.058;2023-04-04T13:49:23;9.32;;;2.28;;
51560;SDS011;37654;51.262;17.058;2023-04-04T13:51:49;8.50;;;3.80;;
51560;SDS011;37654;51.262;17.058;2023-04-04T13:54:15;7.68;;;2.15;;
51560;SDS011;37654;51.262;17.058;2023-04-04T13:56:40;8.85;;;2.30;;
51560;SDS011;37654;51.262;17.058;2023-04-04T13:59:06;5.47;;;2.08;;
51560;SDS011;37654;51.262;17.058;2023-04-04T14:01:32;6.93;;;2.28;;
51560;SDS011;37654;51.262;17.058;2023-04-04T14:03:57;3.83;;;1.85;;
51560;SDS011;37654;51.262;17.058;2023-04-04T14:06:23;5.43;;;2.15;;
51560;SDS011;37654;51.262;17.058;2023-04-04T14:08:49;9.95;;;2.70;;
51560;SDS011;37654;51.262;17.058;2023-04-04T14:11:14;4.85;;;1.95;;
51560;SDS011;37654;51.262;17.058;2023-04-04T14:13:40;5.20;;;1.73;;
51560;SDS011;37654;51.262;17.058;2023-04-04T14:16:06;8.05;;;1.88;;
51560;SDS011;37654;51.262;17.058;2023-04-04T14:18:33;6.63;;;1.75;;
51560;SDS011;37654;51.262;17.058;2023-04-04T14:20:59;8.85;;;1.85;;
51560;SDS011;37654;51.262;17.058;2023-04-04T14:23:25;8.63;;;2.00;;
51560;SDS011;37654;51.262;17.058;2023-04-04T14:25:51;6.50;;;1.98;;
51560;SDS011;37654;51.262;17.058;2023-04-04T14:28:16;5.00;;;1.98;;
51560;SDS011;37654;51.262;17.058;2023-04-04T14:30:42;7.63;;;2.10;;
51560;SDS011;37654;51.262;17.058;2023-04-04T14:33:07;9.10;;;2.58;;
51560;SDS011;37654;51.262;17.058;2023-04-04T14:35:32;12.48;;;3.17;;
51560;SDS011;37654;51.262;17.058;2023-04-04T14:37:58;8.48;;;2.33;;
51560;SDS011;37654;51.262;17.058;2023-04-04T14:40:23;10.32;;;3.53;;
51560;SDS011;37654;51.262;17.058;2023-04-04T14:42:49;7.55;;;1.98;;
51560;SDS011;37654;51.262;17.058;2023-04-04T14:45:14;3.05;;;1.52;;
51560;SDS011;37654;51.262;17.058;2023-04-04T14:47:40;10.82;;;3.53;;
51560;SDS011;37654;51.262;17.058;2023-04-04T14:50:06;10.75;;;3.50;;
51560;SDS011;37654;51.262;17.058;2023-04-04T14:52:32;6.75;;;2.13;;
51560;SDS011;37654;51.262;17.058;2023-04-04T14:54:57;5.03;;;2.05;;
51560;SDS011;37654;51.262;17.058;2023-04-04T14:57:23;6.90;;;2.40;;
51560;SDS011;37654;51.262;17.058;2023-04-04T14:59:48;3.80;;;1.65;;